createdAt,value
2018-01-15T00:27:45.479Z,4.80
2018-01-15T00:30:14.142Z,4.70
2018-01-15T00:35:22.298Z,4.80
2018-01-15T00:40:21.591Z,4.80
2018-01-15T00:51:15.577Z,4.80
2018-01-15T00:53:43.903Z,4.80
2018-01-15T00:59:10.486Z,4.80
2018-01-15T01:01:42.373Z,4.90
2018-01-15T01:04:11.062Z,4.80
2018-01-15T01:06:39.343Z,4.70
2018-01-15T01:24:47.312Z,4.70
2018-01-15T01:29:52.401Z,4.70
2018-01-15T01:32:20.714Z,4.70
2018-01-15T01:37:18.573Z,4.70
2018-01-15T01:42:16.594Z,4.60
2018-01-15T01:47:15.270Z,4.70
2018-01-15T01:54:42.586Z,4.70
2018-01-15T01:57:10.898Z,4.70
2018-01-15T02:02:25.704Z,4.70
2018-01-15T02:07:23.751Z,4.70
2018-01-15T02:12:22.180Z,4.70
2018-01-15T02:14:51.709Z,4.70
2018-01-15T02:17:20.012Z,4.70
2018-01-15T02:19:55.918Z,4.80
2018-01-15T02:27:23.776Z,4.80
2018-01-15T02:32:30.998Z,4.80
2018-01-15T02:37:46.736Z,4.90
2018-01-15T02:40:19.063Z,4.90
2018-01-15T02:42:47.584Z,5.00
2018-01-15T02:50:15.309Z,4.90
2018-01-15T02:55:14.775Z,5.00
2018-01-15T03:09:05.950Z,5.20
2018-01-15T03:16:33.552Z,5.20
2018-01-15T03:24:06.987Z,5.20
2018-01-15T03:26:35.517Z,5.20
2018-01-15T03:29:04.967Z,5.20
2018-01-15T03:31:33.574Z,5.30
2018-01-15T03:34:02.326Z,5.30
2018-01-15T03:36:32.141Z,5.30
2018-01-15T03:39:00.555Z,5.40
2018-01-15T03:41:29.672Z,5.40
2018-01-15T03:44:00.451Z,5.30
2018-01-15T03:46:28.696Z,5.40
2018-01-15T03:48:56.936Z,5.30
2018-01-15T03:51:26.765Z,5.40
2018-01-15T03:53:55.415Z,5.40
2018-01-15T03:58:53.182Z,5.40
2018-01-15T04:01:21.866Z,5.40
2018-01-15T04:06:22.123Z,5.40
2018-01-15T04:11:19.882Z,5.30
2018-01-15T04:13:49.873Z,5.40
2018-01-15T04:16:19.673Z,5.30
2018-01-15T04:18:48.018Z,5.40
2018-01-15T04:21:16.342Z,5.40
2018-01-15T04:23:45.393Z,5.40
2018-01-15T04:26:13.641Z,5.40
2018-01-15T04:28:41.953Z,5.40
2018-01-15T04:31:10.979Z,5.40
2018-01-15T04:33:40.354Z,5.40
2018-01-15T04:36:08.669Z,5.40
2018-01-15T04:38:36.959Z,5.40
2018-01-15T04:41:05.232Z,5.50
2018-01-15T04:43:33.568Z,5.50
2018-01-15T04:46:03.054Z,5.50
2018-01-15T04:48:31.330Z,5.50
2018-01-15T04:51:01.209Z,5.40
2018-01-15T04:53:30.807Z,5.40
2018-01-15T04:55:59.057Z,5.50
2018-01-15T04:58:27.394Z,5.50
2018-01-15T05:00:55.644Z,5.50
2018-01-15T05:03:24.914Z,5.50
2018-01-15T05:05:53.345Z,5.60
2018-01-15T05:08:22.405Z,5.50
2018-01-15T05:10:51.452Z,5.60
2018-01-15T05:13:19.901Z,5.60
2018-01-15T05:15:48.665Z,5.60
2018-01-15T05:18:17.591Z,5.60
2018-01-15T05:20:46.002Z,5.60
2018-01-15T05:25:43.874Z,5.70
2018-01-15T05:28:12.310Z,5.70
2018-01-15T05:30:40.565Z,5.70
2018-01-15T05:33:08.846Z,5.80
2018-01-15T05:35:37.247Z,5.80
2018-01-15T05:38:05.539Z,5.80
2018-01-15T05:43:03.371Z,5.80
2018-01-15T05:45:32.682Z,5.80
2018-01-15T05:50:31.974Z,5.80
2018-01-15T05:53:01.150Z,5.80
2018-01-15T05:55:31.121Z,5.80
2018-01-15T05:57:59.378Z,5.80
2018-01-15T06:00:27.883Z,5.90
2018-01-15T06:02:56.202Z,5.80
2018-01-15T06:05:24.941Z,5.90
2018-01-15T06:07:54.782Z,5.90
2018-01-15T06:10:23.966Z,5.90
2018-01-15T06:12:54.968Z,5.90
2018-01-15T06:15:24.182Z,5.90
2018-01-15T06:17:52.527Z,5.90
2018-01-15T06:20:21.196Z,5.90
2018-01-15T06:22:49.587Z,5.90
2018-01-15T06:25:18.027Z,5.90
2018-01-15T06:27:47.337Z,5.90
2018-01-15T06:30:15.633Z,5.90
2018-01-15T06:32:43.922Z,5.90
2018-01-15T06:35:12.177Z,5.80
2018-01-15T06:37:40.465Z,5.80
2018-01-15T06:40:09.489Z,5.80
2018-01-15T06:42:38.538Z,5.80
2018-01-15T06:45:06.905Z,5.80
2018-01-15T06:47:35.953Z,5.70
2018-01-15T06:50:05.708Z,5.70
2018-01-15T06:55:03.970Z,5.60
2018-01-15T06:57:32.888Z,5.60
2018-01-15T07:00:01.181Z,5.50
2018-01-15T07:02:29.462Z,5.50
2018-01-15T07:04:57.712Z,5.50
2018-01-15T07:07:26.783Z,5.50
2018-01-15T07:09:55.432Z,5.50
2018-01-15T07:17:23.409Z,5.50
2018-01-15T07:19:52.085Z,5.40
2018-01-15T07:22:20.725Z,5.40
2018-01-15T07:24:49.475Z,5.40
2018-01-15T07:27:18.519Z,5.40
2018-01-15T07:29:46.935Z,5.40
2018-01-15T07:32:15.968Z,5.50
2018-01-15T07:34:44.362Z,5.50
2018-01-15T07:37:13.925Z,5.40
2018-01-15T07:39:43.283Z,5.40
2018-01-15T07:42:12.345Z,5.40
2018-01-15T07:44:41.468Z,5.40
2018-01-15T07:47:10.493Z,5.50
2018-01-15T07:49:38.772Z,5.50
2018-01-15T07:52:07.073Z,5.50
2018-01-15T07:54:35.386Z,5.50
2018-01-15T07:57:03.706Z,5.50
2018-01-15T07:59:32.046Z,5.50
2018-01-15T08:02:01.059Z,5.50
2018-01-15T08:04:29.315Z,5.50
2018-01-15T08:06:57.620Z,5.50
2018-01-15T08:09:26.049Z,5.50
2018-01-15T08:11:55.804Z,5.50
2018-01-15T08:14:24.084Z,5.50
2018-01-15T08:16:52.379Z,5.60
2018-01-15T08:19:20.636Z,5.60
2018-01-15T08:21:48.910Z,5.60
2018-01-15T08:24:17.277Z,5.50
2018-01-15T08:26:46.389Z,5.50
2018-01-15T08:29:15.184Z,5.50
2018-01-15T08:31:43.433Z,5.50
2018-01-15T08:34:11.699Z,5.60
2018-01-15T08:36:40.033Z,5.60
2018-01-15T08:41:37.881Z,5.60
2018-01-15T08:44:06.209Z,5.70
2018-01-15T08:46:34.519Z,5.60
2018-01-15T08:49:02.790Z,5.60
2018-01-15T08:51:31.133Z,5.60
2018-01-15T08:53:59.464Z,5.70
2018-01-15T08:56:27.737Z,5.80
2018-01-15T08:58:56.033Z,5.80
2018-01-15T09:01:24.285Z,5.90
2018-01-15T09:03:52.553Z,6.00
2018-01-15T09:06:20.895Z,6.00
2018-01-15T09:08:49.147Z,6.00
2018-01-15T09:11:17.410Z,6.10
2018-01-15T09:13:46.969Z,6.00
2018-01-15T09:16:15.252Z,6.20
2018-01-15T09:18:43.510Z,6.20
2018-01-15T09:21:11.868Z,6.20
2018-01-15T09:26:09.751Z,6.30
2018-01-15T09:28:38.067Z,6.30
2018-01-15T09:31:06.698Z,6.30
2018-01-15T09:33:35.376Z,6.40
2018-01-15T09:36:03.707Z,6.40
2018-01-15T09:38:32.077Z,6.40
2018-01-15T09:41:00.330Z,6.50
2018-01-15T09:43:29.962Z,6.50
2018-01-15T09:45:58.336Z,6.60
2018-01-15T09:48:26.627Z,6.60
2018-01-15T09:50:56.126Z,6.70
2018-01-15T09:53:24.531Z,6.70
2018-01-15T09:55:52.840Z,6.80
2018-01-15T09:58:21.629Z,6.80
2018-01-15T10:03:19.354Z,6.90
2018-01-15T10:05:48.429Z,6.90
2018-01-15T10:08:16.687Z,7.00
2018-01-15T10:10:45.046Z,7.00
2018-01-15T10:13:13.382Z,7.10
2018-01-15T10:15:41.672Z,7.10
2018-01-15T10:18:10.352Z,7.10
2018-01-15T10:20:39.111Z,7.10
2018-01-15T10:23:08.153Z,7.20
2018-01-15T10:25:36.931Z,7.20
2018-01-15T10:30:34.825Z,7.20
2018-01-15T10:33:03.091Z,7.20
2018-01-15T10:35:32.975Z,7.30
2018-01-15T10:38:01.193Z,7.30
2018-01-15T10:40:30.241Z,7.30
2018-01-15T10:42:58.569Z,7.30
2018-01-15T10:45:26.828Z,7.30
2018-01-15T10:47:55.873Z,7.40
2018-01-15T10:50:24.970Z,7.40
2018-01-15T10:52:54.061Z,7.40
2018-01-15T10:55:23.909Z,7.50
2018-01-15T10:57:52.188Z,7.60
2018-01-15T11:00:27.675Z,7.60
2018-01-15T11:02:55.994Z,7.60
2018-01-15T11:05:24.358Z,7.70
2018-01-15T11:07:53.748Z,7.80
2018-01-15T11:15:21.840Z,7.90
2018-01-15T11:17:50.124Z,8.00
2018-01-15T11:20:19.147Z,8.00
2018-01-15T11:22:47.453Z,8.00
2018-01-15T11:27:45.260Z,8.10
2018-01-15T11:30:14.314Z,8.10
2018-01-15T11:32:42.617Z,8.10
2018-01-15T11:35:10.868Z,8.10
2018-01-15T11:37:39.139Z,8.10
2018-01-15T11:40:07.534Z,8.10
2018-01-15T11:42:35.814Z,8.10
2018-01-15T11:45:05.235Z,8.10
2018-01-15T11:47:34.354Z,8.10
2018-01-15T11:50:03.427Z,8.10
2018-01-15T11:52:31.725Z,8.10
2018-01-15T11:55:00.028Z,8.10
2018-01-15T11:57:28.609Z,8.10
2018-01-15T11:59:56.866Z,8.10
2018-01-15T12:02:26.812Z,8.10
2018-01-15T12:04:55.130Z,8.10
2018-01-15T12:09:53.133Z,8.10
2018-01-15T12:12:21.419Z,8.20
2018-01-15T12:14:49.738Z,8.10
2018-01-15T12:17:18.781Z,8.10
2018-01-15T12:19:47.045Z,8.10
2018-01-15T12:22:16.478Z,8.00
2018-01-15T12:24:45.637Z,7.90
2018-01-15T12:27:14.852Z,7.90
2018-01-15T12:29:43.114Z,7.90
2018-01-15T12:32:11.622Z,7.90
2018-01-15T12:34:39.883Z,7.90
2018-01-15T12:37:09.632Z,7.80
2018-01-15T12:42:07.941Z,7.90
2018-01-15T12:44:49.437Z,7.80
2018-01-15T12:47:17.726Z,7.80
2018-01-15T12:49:46.913Z,7.80
2018-01-15T12:52:15.443Z,7.80
2018-01-15T12:54:43.980Z,7.80
2018-01-15T12:57:12.353Z,7.90
2018-01-15T12:59:40.729Z,7.90
2018-01-15T13:02:09.813Z,7.80
2018-01-15T13:09:53.726Z,7.80
2018-01-15T13:12:21.987Z,7.80
2018-01-15T13:14:52.317Z,7.90
2018-01-15T13:17:21.335Z,7.90
2018-01-15T13:22:24.377Z,7.90
2018-01-15T13:27:27.604Z,7.90
2018-01-15T13:29:56.845Z,7.90
2018-01-15T13:32:25.102Z,7.80
2018-01-15T13:34:53.401Z,7.70
2018-01-15T13:37:21.658Z,7.60
2018-01-15T13:39:50.491Z,7.50
2018-01-15T13:42:18.778Z,7.40
2018-01-15T13:44:47.028Z,7.30
2018-01-15T13:47:16.778Z,7.30
2018-01-15T13:49:45.827Z,7.20
2018-01-15T13:52:15.239Z,7.20
2018-01-15T13:54:43.559Z,7.10
2018-01-15T13:57:12.671Z,7.20
2018-01-15T13:59:42.052Z,7.20
2018-01-15T14:04:39.918Z,7.20
2018-01-15T14:07:08.933Z,7.20
2018-01-15T14:09:49.699Z,7.20
2018-01-15T14:12:17.944Z,7.30
2018-01-15T14:14:46.590Z,7.30
2018-01-15T14:17:14.864Z,7.40
2018-01-15T14:22:13.340Z,7.50
2018-01-15T14:24:41.600Z,7.50
2018-01-15T14:27:09.852Z,7.60
2018-01-15T14:29:38.505Z,7.60
2018-01-15T14:32:06.805Z,7.60
2018-01-15T14:34:35.866Z,7.60
2018-01-15T14:37:05.297Z,7.60
2018-01-15T14:39:35.257Z,7.60
2018-01-15T14:42:05.190Z,7.70
2018-01-15T14:44:33.428Z,7.60
2018-01-15T14:47:01.810Z,7.60
2018-01-15T14:49:30.237Z,7.60
2018-01-15T14:51:59.247Z,7.50
2018-01-15T14:56:56.989Z,7.50
2018-01-15T14:59:27.290Z,7.40
2018-01-15T15:01:56.333Z,7.50
2018-01-15T15:09:25.693Z,7.50
2018-01-15T15:11:54.361Z,7.50
2018-01-15T15:14:22.606Z,7.50
2018-01-15T15:16:51.291Z,7.40
2018-01-15T15:19:20.416Z,7.40
2018-01-15T15:21:49.053Z,7.40
2018-01-15T15:24:17.321Z,7.40
2018-01-15T15:26:45.557Z,7.40
2018-01-15T15:29:13.820Z,7.40
2018-01-15T15:31:43.667Z,7.40
2018-01-15T15:34:12.667Z,7.40
2018-01-15T15:36:42.040Z,7.30
2018-01-15T15:39:11.464Z,7.30
2018-01-15T15:41:39.698Z,7.30
2018-01-15T15:44:08.024Z,7.30
2018-01-15T15:46:36.332Z,7.30
2018-01-15T15:49:06.089Z,7.30
2018-01-15T15:54:04.631Z,7.40
2018-01-15T15:56:33.654Z,7.40
2018-01-15T15:59:02.670Z,7.50
2018-01-15T16:01:32.505Z,7.50
2018-01-15T16:04:01.504Z,7.50
2018-01-15T16:06:29.729Z,7.50
2018-01-15T16:08:59.132Z,7.50
2018-01-15T16:13:57.584Z,7.50
2018-01-15T16:16:25.880Z,7.60
2018-01-15T16:18:54.112Z,7.60
2018-01-15T16:21:23.117Z,7.60
2018-01-15T16:23:51.776Z,7.60
2018-01-15T16:28:49.476Z,7.50
2018-01-15T16:31:19.244Z,7.40
2018-01-15T16:33:47.480Z,7.30
2018-01-15T16:36:17.222Z,7.20
2018-01-15T16:38:46.997Z,7.20
2018-01-15T16:41:15.221Z,7.10
2018-01-15T16:43:43.464Z,7.00
2018-01-15T16:46:13.712Z,7.00
2018-01-15T16:48:43.072Z,6.90
2018-01-15T16:51:11.301Z,6.90
2018-01-15T16:53:39.961Z,6.80
2018-01-15T16:56:09.693Z,6.80
2018-01-15T16:58:39.460Z,6.80
2018-01-15T17:01:08.113Z,6.80
2018-01-15T17:06:06.616Z,6.70
2018-01-15T17:08:34.893Z,6.70
2018-01-15T17:13:33.775Z,6.70
2018-01-15T17:16:02.031Z,6.70
2018-01-15T17:18:30.257Z,6.70
2018-01-15T17:23:28.579Z,6.70
2018-01-15T17:25:56.813Z,6.70
2018-01-15T17:28:25.045Z,6.70
2018-01-15T17:30:53.316Z,6.70
2018-01-15T17:33:21.940Z,6.70
2018-01-15T17:35:51.301Z,6.70
2018-01-15T17:38:19.560Z,6.70
2018-01-15T17:40:47.803Z,6.70
2018-01-15T17:45:46.304Z,6.70
2018-01-15T17:48:14.584Z,6.70
2018-01-15T17:50:43.595Z,6.70
2018-01-15T17:53:11.861Z,6.70
2018-01-15T17:55:40.096Z,6.70
2018-01-15T17:58:08.339Z,6.70
2018-01-15T18:00:36.620Z,6.70
2018-01-15T18:03:06.009Z,6.70
2018-01-15T18:05:34.232Z,6.70
2018-01-15T18:08:02.501Z,6.70
2018-01-15T18:10:30.730Z,6.70
2018-01-15T18:12:59.347Z,6.70
2018-01-15T18:15:27.616Z,6.70
2018-01-15T18:17:55.825Z,6.70
2018-01-15T18:25:24.160Z,6.80
2018-01-15T18:27:53.159Z,6.80
2018-01-15T18:30:21.429Z,6.80
2018-01-15T18:32:49.648Z,6.80
2018-01-15T18:37:48.224Z,6.80
2018-01-15T18:40:17.956Z,6.80
2018-01-15T18:45:16.085Z,6.80
2018-01-15T18:47:44.329Z,6.70
2018-01-15T18:50:12.615Z,6.70
2018-01-15T18:52:41.472Z,6.70
2018-01-15T18:55:10.854Z,6.70
2018-01-15T18:57:39.112Z,6.70
2018-01-15T19:00:07.489Z,6.70
2018-01-15T19:02:37.291Z,6.80
2018-01-15T19:07:35.916Z,6.80
2018-01-15T19:10:05.277Z,6.80
2018-01-15T19:12:34.668Z,6.80
2018-01-15T19:15:03.289Z,6.80
2018-01-15T19:20:01.008Z,6.70
2018-01-15T19:22:29.629Z,6.70
2018-01-15T19:24:58.896Z,6.70
2018-01-15T19:27:27.884Z,6.70
2018-01-15T19:29:56.108Z,6.70
2018-01-15T19:32:25.152Z,6.70
2018-01-15T19:34:58.510Z,6.70
2018-01-15T19:37:30.107Z,6.70
2018-01-15T19:39:59.104Z,6.80
2018-01-15T19:45:02.995Z,6.80
2018-01-15T19:47:37.717Z,6.90
2018-01-15T19:50:11.809Z,6.80
2018-01-15T19:52:46.628Z,6.90
2018-01-15T19:55:20.984Z,6.90
2018-01-15T20:00:31.465Z,7.00
2018-01-15T20:03:05.354Z,7.10
2018-01-15T20:08:15.280Z,7.10
2018-01-15T20:10:49.631Z,7.20
2018-01-15T20:13:18.278Z,7.20
2018-01-15T20:15:46.488Z,7.20
2018-01-15T20:18:14.758Z,7.20
2018-01-15T20:20:43.441Z,7.30
2018-01-15T20:23:11.707Z,7.30
2018-01-15T20:25:41.150Z,7.30
2018-01-15T20:28:09.456Z,7.40
2018-01-15T20:33:08.752Z,7.40
2018-01-15T20:38:06.937Z,7.40
2018-01-15T20:40:35.188Z,7.50
2018-01-15T20:43:03.455Z,7.50
2018-01-15T20:45:31.729Z,7.50
2018-01-15T20:48:00.034Z,7.50
2018-01-15T20:52:57.770Z,7.50
2018-01-15T20:55:26.070Z,7.40
2018-01-15T21:00:24.545Z,7.50
2018-01-15T21:02:52.868Z,7.50
2018-01-15T21:05:21.131Z,7.50
2018-01-15T21:07:49.382Z,7.50
2018-01-15T21:10:17.686Z,7.50
2018-01-15T21:12:47.407Z,7.50
2018-01-15T21:15:15.671Z,7.60
2018-01-15T21:17:44.031Z,7.50
2018-01-15T21:20:13.065Z,7.60
2018-01-15T21:25:11.818Z,7.60
2018-01-15T21:30:09.618Z,7.70
2018-01-15T21:32:37.937Z,7.70
2018-01-15T21:35:07.655Z,7.70
2018-01-15T21:37:36.690Z,7.80
2018-01-15T21:40:06.082Z,7.80
2018-01-15T21:42:34.390Z,7.90
2018-01-15T21:45:02.607Z,7.90
2018-01-15T21:47:30.936Z,7.90
2018-01-15T21:52:29.421Z,8.10
2018-01-15T21:57:28.550Z,8.20
2018-01-15T22:02:27.125Z,8.10
2018-01-15T22:04:55.386Z,8.20
2018-01-15T22:07:23.600Z,8.20
2018-01-15T22:09:53.406Z,8.20
2018-01-15T22:12:21.625Z,8.10
2018-01-15T22:14:50.655Z,8.10
2018-01-15T22:17:19.733Z,8.10
2018-01-15T22:19:47.936Z,8.10
2018-01-15T22:22:16.207Z,8.20
2018-01-15T22:24:44.534Z,8.20
2018-01-15T22:27:12.766Z,8.20
2018-01-15T22:29:42.601Z,8.20
2018-01-15T22:32:10.893Z,8.20
2018-01-15T22:34:39.137Z,8.30
2018-01-15T22:37:07.357Z,8.30
2018-01-15T22:39:35.741Z,8.30
2018-01-15T22:42:04.727Z,8.30
2018-01-15T22:47:03.200Z,8.20
2018-01-15T22:49:31.427Z,8.20
2018-01-15T22:51:59.692Z,8.20
2018-01-15T22:54:29.092Z,8.20
2018-01-15T22:56:57.328Z,8.10
2018-01-15T22:59:25.552Z,8.10
2018-01-15T23:01:53.837Z,8.10
2018-01-15T23:04:22.067Z,8.10
2018-01-15T23:06:50.288Z,8.20
2018-01-15T23:09:18.564Z,8.10
2018-01-15T23:11:46.794Z,8.10
2018-01-15T23:14:15.021Z,8.10
2018-01-15T23:16:43.289Z,8.10
2018-01-15T23:19:11.520Z,8.10
2018-01-15T23:24:10.756Z,8.00
2018-01-15T23:26:38.984Z,8.20
2018-01-15T23:29:08.721Z,8.20
2018-01-15T23:31:37.557Z,8.30
2018-01-15T23:36:35.292Z,8.20
2018-01-15T23:41:34.226Z,8.20
2018-01-15T23:44:02.482Z,8.20
2018-01-15T23:46:31.970Z,8.20
2018-01-15T23:51:30.449Z,8.10
2018-01-15T23:53:58.713Z,8.10
2018-01-15T23:56:26.945Z,8.10
2018-01-15T23:58:56.318Z,8.10
